This is the latest recevied weather packets stored in our database for station/object HS5SQI-2. If no packets are shown the sender has not sent any weather packets the latest 10 day(s).
| Time | Temp. | Humidity | Pressure | Rain* | Wind** | Luminosity | Snow |
|---|---|---|---|---|---|---|---|
| 1777801581 | 37.78° C | 50% | 1003 hPa | - | - | 0 W/m² | - |
| 1777800959 | 37.78° C | 49% | 1003 hPa | - | - | 0 W/m² | - |
| 1777800337 | 37.78° C | 50% | 1003 hPa | - | - | 0 W/m² | - |
| 1777799715 | 37.78° C | 51% | 1003 hPa | - | - | 0 W/m² | - |
| 1777799093 | 37.78° C | 52% | 1003 hPa | - | - | 0 W/m² | - |
| 1777798471 | 38.33° C | 54% | 1003 hPa | - | - | 0 W/m² | - |
| 1777797849 | 37.78° C | 56% | 1003 hPa | - | - | 0 W/m² | - |
| 1777797226 | 37.22° C | 56% | 1003 hPa | - | - | 0 W/m² | - |
| 1777796604 | 37.78° C | 55% | 1003 hPa | - | - | 0 W/m² | - |
| 1777795982 | 37.22° C | 56% | 1003 hPa | - | - | 0 W/m² | - |
| 1777795360 | 37.78° C | 55% | 1003 hPa | - | - | 0 W/m² | - |
| 1777794738 | 38.33° C | 55% | 1004 hPa | - | - | 0 W/m² | - |
| 1777794116 | 37.78° C | 56% | 1004 hPa | - | - | 0 W/m² | - |
| 1777793494 | 37.78° C | 55% | 1004 hPa | - | - | 0 W/m² | - |
| 1777792872 | 37.22° C | 58% | 1004 hPa | - | - | 0 W/m² | - |
| 1777792250 | 36.11° C | 60% | 1005 hPa | - | - | 0 W/m² | - |
| 1777791628 | 35.56° C | 61% | 1005 hPa | - | - | 0 W/m² | - |
| 1777791006 | 36.67° C | 59% | 1005 hPa | - | - | 0 W/m² | - |
| 1777790384 | 37.22° C | 59% | 1005 hPa | - | - | 0 W/m² | - |
| 1777789762 | 37.22° C | 59% | 1005 hPa | - | - | 0 W/m² | - |
| 1777789140 | 36.11° C | 61% | 1005 hPa | - | - | 0 W/m² | - |
| 1777788518 | 36.67° C | 65% | 1005 hPa | - | - | 0 W/m² | - |
| 1777787896 | 35.56° C | 69% | 1006 hPa | - | - | 0 W/m² | - |
| 1777787274 | 35° C | 69% | 1006 hPa | - | - | 0 W/m² | - |
| 1777786652 | 35.56° C | 63% | 1006 hPa | - | - | 0 W/m² | - |
* Rain since midnight (hover to see other rain measurements)
** Current wind speed in m/s (hover to see current wind gust speed)